Time;durP1;ratioP1;P1;durP2;ratioP2;P2;SDS_P1;SDS_P2;PMS_P1;PMS_P2;Temp;Humidity;BMP_temperature;BMP_pressure;BME280_temperature;BME280_humidity;BME280_pressure;Samples;Min_cycle;Max_cycle;Signal;HPM_P1;HPM_P2
2023/08/24 00:00:19;;;;;;;8.57;3.40;;;17.10;99.90;;;;;;5056096;28;20175;-76
2023/08/24 00:02:45;;;;;;;4.83;3.03;;;17.00;99.90;;;;;;5054299;28;20210;-75
2023/08/24 00:05:10;;;;;;;14.97;3.30;;;16.90;99.90;;;;;;5055803;28;20168;-76
2023/08/24 00:07:36;;;;;;;9.93;3.40;;;16.90;99.90;;;;;;5055969;28;20217;-76
2023/08/24 00:10:03;;;;;;;4.43;3.10;;;16.90;99.90;;;;;;5056003;28;20209;-76
2023/08/24 00:12:29;;;;;;;5.90;3.07;;;16.90;99.90;;;;;;5055792;28;20195;-75
2023/08/24 00:14:55;;;;;;;7.33;3.33;;;16.90;99.90;;;;;;5054256;28;20588;-76
2023/08/24 00:17:22;;;;;;;4.10;3.00;;;16.90;99.90;;;;;;5055566;28;20175;-76
2023/08/24 00:19:48;;;;;;;5.47;3.00;;;16.80;99.90;;;;;;5055856;28;20171;-76
2023/08/24 00:22:14;;;;;;;5.07;2.80;;;16.80;99.90;;;;;;5055663;28;20200;-76
2023/08/24 00:24:40;;;;;;;5.97;3.37;;;16.80;99.90;;;;;;5054138;28;20178;-75
2023/08/24 00:27:05;;;;;;;5.03;2.80;;;16.80;99.90;;;;;;5055591;28;20195;-76
2023/08/24 00:29:31;;;;;;;6.30;3.40;;;16.80;99.90;;;;;;5055300;28;20223;-76
2023/08/24 00:31:57;;;;;;;6.57;3.30;;;16.70;99.90;;;;;;5055538;28;20200;-76
2023/08/24 00:34:23;;;;;;;5.13;3.00;;;16.70;99.90;;;;;;5055257;28;20635;-76
2023/08/24 00:36:48;;;;;;;7.90;3.00;;;16.70;99.90;;;;;;5055385;28;20301;-75
2023/08/24 00:39:15;;;;;;;8.90;3.47;;;16.70;99.90;;;;;;5055243;28;20175;-75
2023/08/24 00:41:41;;;;;;;6.37;3.30;;;16.70;99.90;;;;;;5053781;28;20195;-75
2023/08/24 00:44:07;;;;;;;3.97;2.83;;;16.70;99.90;;;;;;5055462;28;20168;-75
2023/08/24 00:46:34;;;;;;;4.30;2.97;;;16.60;99.90;;;;;;5054988;28;20186;-76
2023/08/24 00:49:00;;;;;;;5.63;2.67;;;16.70;99.90;;;;;;5055177;28;20168;-75
2023/08/24 00:51:25;;;;;;;5.60;2.80;;;16.60;99.90;;;;;;5054911;28;20714;-76
2023/08/24 00:53:51;;;;;;;3.40;2.87;;;16.60;99.90;;;;;;5054816;28;20175;-75
2023/08/24 00:56:17;;;;;;;4.73;3.00;;;16.60;99.90;;;;;;5054819;28;20712;-76
2023/08/24 00:58:44;;;;;;;6.87;3.60;;;16.60;99.90;;;;;;5054616;28;20179;-75
2023/08/24 01:01:09;;;;;;;4.17;2.90;;;16.50;99.90;;;;;;5053392;28;20200;-75
2023/08/24 01:03:35;;;;;;;5.83;3.30;;;16.60;99.90;;;;;;5054819;28;20700;-76
2023/08/24 01:06:00;;;;;;;5.53;3.30;;;16.50;99.90;;;;;;5054649;28;20180;-75
2023/08/24 01:08:26;;;;;;;8.10;3.67;;;16.50;99.90;;;;;;5054602;28;20175;-75
2023/08/24 01:11:18;;;;;;;6.50;3.03;;;16.50;99.90;;;;;;5054774;28;20172;-76
2023/08/24 01:14:20;;;;;;;4.73;3.27;;;16.40;99.90;;;;;;5054340;28;20266;-75
2023/08/24 01:16:47;;;;;;;6.70;3.67;;;16.40;99.90;;;;;;5053205;28;20179;-75
2023/08/24 01:19:41;;;;;;;8.33;3.73;;;16.40;99.90;;;;;;5054363;28;20180;-75
2023/08/24 01:22:27;;;;;;;10.20;4.00;;;16.40;99.90;;;;;;5054184;28;20687;-76
2023/08/24 01:25:16;;;;;;;9.43;3.70;;;16.30;99.90;;;;;;5054322;28;20160;-75
2023/08/24 01:27:43;;;;;;;4.40;3.53;;;16.30;99.90;;;;;;5054488;28;20362;-76
2023/08/24 01:30:09;;;;;;;8.60;4.07;;;16.20;99.90;;;;;;5054248;28;20168;-75
2023/08/24 01:32:36;;;;;;;6.60;3.40;;;16.20;99.90;;;;;;5054401;28;20234;-75
2023/08/24 01:35:04;;;;;;;5.67;3.80;;;16.30;99.90;;;;;;5053334;28;20199;-76
2023/08/24 01:37:29;;;;;;;5.73;3.50;;;16.30;99.90;;;;;;5052710;28;20179;-76
2023/08/24 01:40:08;;;;;;;6.97;3.33;;;16.30;99.90;;;;;;5054623;28;20258;-75
2023/08/24 01:42:36;;;;;;;7.97;3.77;;;16.30;99.90;;;;;;5053836;28;20289;-76
2023/08/24 01:45:07;;;;;;;9.37;3.60;;;16.40;99.90;;;;;;5053883;28;20172;-76
2023/08/24 01:47:35;;;;;;;7.33;4.10;;;16.30;99.90;;;;;;5054777;28;20163;-76
2023/08/24 01:50:01;;;;;;;4.93;3.77;;;16.30;99.90;;;;;;5053983;28;20306;-76
2023/08/24 01:52:27;;;;;;;7.57;3.63;;;16.20;99.90;;;;;;5053749;28;20194;-76
2023/08/24 01:54:53;;;;;;;4.30;3.53;;;16.20;99.90;;;;;;5052352;28;20495;-76
2023/08/24 01:57:19;;;;;;;4.33;3.90;;;16.20;99.90;;;;;;5053795;28;20188;-76
2023/08/24 01:59:44;;;;;;;7.57;3.90;;;16.20;99.90;;;;;;5053663;28;20175;-75
2023/08/24 02:02:10;;;;;;;6.93;4.00;;;16.20;99.90;;;;;;5053486;28;20207;-76
2023/08/24 02:04:35;;;;;;;6.10;3.30;;;16.10;99.90;;;;;;5053874;28;20167;-75
2023/08/24 02:07:01;;;;;;;10.47;3.50;;;16.10;99.90;;;;;;5052320;28;20195;-76
2023/08/24 02:09:26;;;;;;;6.47;3.17;;;16.10;99.90;;;;;;5053434;28;20187;-76
2023/08/24 02:11:52;;;;;;;4.57;3.20;;;16.20;99.90;;;;;;5052584;28;20191;-76
2023/08/24 02:14:17;;;;;;;7.23;3.60;;;16.10;99.90;;;;;;5053376;28;20172;-76
2023/08/24 02:16:43;;;;;;;5.30;3.13;;;16.10;99.90;;;;;;5051947;28;20655;-76
2023/08/24 02:19:08;;;;;;;6.27;3.93;;;16.00;99.90;;;;;;5053438;28;20172;-75
2023/08/24 02:21:37;;;;;;;8.00;4.00;;;16.00;99.90;;;;;;5053492;28;20278;-75
2023/08/24 02:24:04;;;;;;;4.60;3.80;;;16.00;99.90;;;;;;5053094;28;20220;-76
2023/08/24 02:26:29;;;;;;;6.87;4.07;;;16.10;99.90;;;;;;5051250;28;20218;-75
2023/08/24 02:28:56;;;;;;;11.63;3.80;;;16.00;99.90;;;;;;5052978;28;20245;-75
2023/08/24 02:31:22;;;;;;;7.17;3.67;;;16.00;99.90;;;;;;5054332;28;20199;-76
2023/08/24 02:33:48;;;;;;;6.13;4.17;;;16.00;99.90;;;;;;5053211;28;20172;-76
2023/08/24 02:36:14;;;;;;;7.80;3.63;;;16.00;99.90;;;;;;5040505;28;20191;-76
2023/08/24 02:38:40;;;;;;;6.07;3.80;;;16.00;99.90;;;;;;5033024;28;20168;-76
2023/08/24 02:41:07;;;;;;;6.47;3.47;;;15.90;99.90;;;;;;5033126;28;20279;-76
2023/08/24 02:43:33;;;;;;;10.13;3.50;;;15.90;99.90;;;;;;5032909;28;20192;-76
2023/08/24 02:46:05;;;;;;;6.40;3.73;;;15.90;99.90;;;;;;5032635;28;20188;-76
2023/08/24 02:48:31;;;;;;;7.77;3.47;;;15.80;99.90;;;;;;5033069;28;20206;-76
2023/08/24 02:50:58;;;;;;;7.03;3.67;;;15.90;99.90;;;;;;5033199;28;20199;-76
2023/08/24 02:53:24;;;;;;;4.90;3.27;;;15.90;99.90;;;;;;5039326;28;20650;-75
2023/08/24 02:55:50;;;;;;;6.43;3.40;;;15.80;99.90;;;;;;5053077;28;20172;-75
2023/08/24 02:58:15;;;;;;;5.63;3.07;;;15.90;99.90;;;;;;5052615;28;20172;-75
2023/08/24 03:00:41;;;;;;;4.93;3.30;;;15.90;99.90;;;;;;5052474;28;20647;-76
2023/08/24 03:03:06;;;;;;;9.13;3.70;;;16.00;99.90;;;;;;5047043;28;20203;-75
2023/08/24 03:05:32;;;;;;;9.17;3.70;;;15.90;99.90;;;;;;5032640;28;20189;-75
2023/08/24 03:07:58;;;;;;;5.77;3.50;;;15.90;99.90;;;;;;5032738;28;20530;-76
2023/08/24 03:10:24;;;;;;;6.50;3.37;;;15.90;99.90;;;;;;5032709;28;20251;-76
2023/08/24 03:12:49;;;;;;;6.80;3.63;;;15.90;99.90;;;;;;5038097;28;20296;-75
2023/08/24 03:15:15;;;;;;;4.77;3.40;;;15.90;99.90;;;;;;5052300;28;20229;-75
2023/08/24 03:17:41;;;;;;;7.80;3.40;;;15.90;99.90;;;;;;5052259;28;20180;-76
2023/08/24 03:20:08;;;;;;;6.90;3.70;;;15.90;99.90;;;;;;5050953;28;20179;-76
2023/08/24 03:22:34;;;;;;;9.00;3.60;;;15.90;99.90;;;;;;5050063;28;20227;-76
2023/08/24 03:24:59;;;;;;;5.83;3.53;;;16.00;99.90;;;;;;5052333;28;20204;-76
2023/08/24 03:27:25;;;;;;;7.53;3.30;;;15.90;99.90;;;;;;5052372;28;20167;-75
2023/08/24 03:29:53;;;;;;;6.63;3.57;;;15.90;99.90;;;;;;5052116;28;20271;-75
2023/08/24 03:32:18;;;;;;;6.27;3.33;;;15.90;99.90;;;;;;5048788;28;20207;-76
2023/08/24 03:34:44;;;;;;;4.40;3.40;;;15.90;99.90;;;;;;5052385;28;20213;-76
2023/08/24 03:37:09;;;;;;;10.40;4.03;;;15.90;99.90;;;;;;5052183;28;20206;-76
2023/08/24 03:39:39;;;;;;;5.37;3.20;;;15.90;99.90;;;;;;5052348;28;20515;-74
2023/08/24 03:42:05;;;;;;;5.27;3.23;;;15.90;99.90;;;;;;5050966;28;20188;-76
2023/08/24 03:44:30;;;;;;;8.37;3.57;;;16.00;99.90;;;;;;5032190;28;20271;-76
2023/08/24 03:46:56;;;;;;;6.47;3.70;;;16.00;99.90;;;;;;5031885;28;20180;-76
2023/08/24 03:49:21;;;;;;;7.57;3.50;;;16.00;99.90;;;;;;5032135;28;20173;-76
2023/08/24 03:51:47;;;;;;;8.23;3.97;;;16.00;99.90;;;;;;5032473;28;20196;-76
2023/08/24 03:54:13;;;;;;;9.27;3.57;;;16.00;99.90;;;;;;5032061;28;20184;-76
2023/08/24 03:56:39;;;;;;;7.27;3.53;;;16.10;99.90;;;;;;5045912;28;20195;-76
2023/08/24 03:59:04;;;;;;;5.30;2.93;;;16.00;99.90;;;;;;5050696;28;20179;-75
2023/08/24 04:01:30;;;;;;;4.00;2.73;;;16.00;99.90;;;;;;5050342;28;20210;-76
2023/08/24 04:03:56;;;;;;;6.43;3.33;;;16.10;99.90;;;;;;5050526;28;20249;-76
2023/08/24 04:06:21;;;;;;;4.40;2.97;;;16.20;99.90;;;;;;5050188;28;20184;-75
2023/08/24 04:08:47;;;;;;;8.17;3.43;;;16.10;99.90;;;;;;5051942;28;20702;-75
2023/08/24 04:11:12;;;;;;;7.77;3.60;;;16.10;99.90;;;;;;5051838;28;20192;-76
2023/08/24 04:13:38;;;;;;;5.30;3.83;;;16.20;99.90;;;;;;5051885;28;20264;-76
2023/08/24 04:16:04;;;;;;;6.80;3.47;;;16.20;99.90;;;;;;5049972;28;20249;-76
2023/08/24 04:18:29;;;;;;;6.87;3.70;;;16.20;99.90;;;;;;5050764;28;20286;-76
2023/08/24 04:20:55;;;;;;;8.37;3.40;;;16.20;99.90;;;;;;5051990;28;20179;-76
2023/08/24 04:23:27;;;;;;;8.23;3.43;;;16.20;99.90;;;;;;5051883;28;20210;-76
2023/08/24 04:25:54;;;;;;;6.30;3.80;;;16.20;99.90;;;;;;5043098;28;20184;-75
2023/08/24 04:28:20;;;;;;;9.60;3.93;;;16.20;99.90;;;;;;5031771;28;20184;-76
2023/08/24 04:30:57;;;;;;;8.53;3.43;;;16.20;99.90;;;;;;5032406;28;20174;-75
2023/08/24 04:33:22;;;;;;;6.00;3.23;;;16.20;99.90;;;;;;5031923;28;20156;-76
2023/08/24 04:35:49;;;;;;;7.33;3.50;;;16.20;99.90;;;;;;5041010;28;20202;-76
2023/08/24 04:38:16;;;;;;;6.73;3.67;;;16.20;99.90;;;;;;5055185;28;20183;-76
2023/08/24 04:41:00;;;;;;;9.60;4.30;;;16.30;99.90;;;;;;5055264;28;20178;-76
2023/08/24 04:43:25;;;;;;;7.23;4.17;;;16.30;99.90;;;;;;5055094;28;20179;-76
2023/08/24 04:45:52;;;;;;;6.83;4.13;;;16.30;99.90;;;;;;5055422;28;20170;-76
2023/08/24 04:48:19;;;;;;;9.17;4.60;;;16.30;99.90;;;;;;5055245;28;20164;-76
2023/08/24 04:50:45;;;;;;;9.67;5.10;;;16.30;99.90;;;;;;5055290;28;20508;-76
2023/08/24 04:53:14;;;;;;;8.50;4.17;;;16.20;99.90;;;;;;5056166;28;20171;-75
2023/08/24 04:55:40;;;;;;;11.83;5.30;;;16.30;99.90;;;;;;5054984;28;20178;-75
2023/08/24 04:58:07;;;;;;;9.30;4.50;;;16.30;99.90;;;;;;5055001;28;20171;-75
2023/08/24 05:00:33;;;;;;;13.33;5.53;;;16.30;99.90;;;;;;5054798;28;20232;-75
2023/08/24 05:02:59;;;;;;;7.43;5.50;;;16.30;99.90;;;;;;5054891;28;20199;-76
2023/08/24 05:05:24;;;;;;;8.57;5.73;;;16.30;99.90;;;;;;5054735;28;20171;-76
2023/08/24 05:07:50;;;;;;;10.50;6.10;;;16.20;99.90;;;;;;5054980;28;20168;-76
2023/08/24 05:10:15;;;;;;;8.47;5.63;;;16.40;99.90;;;;;;5054830;28;20250;-76
2023/08/24 05:12:41;;;;;;;8.43;5.10;;;16.40;99.90;;;;;;5054591;28;20227;-76
2023/08/24 05:15:07;;;;;;;9.33;5.13;;;16.40;99.90;;;;;;5054697;28;20179;-76
2023/08/24 05:17:33;;;;;;;10.47;5.83;;;16.40;99.90;;;;;;5054668;28;20183;-76
2023/08/24 05:19:59;;;;;;;13.33;5.97;;;16.40;99.90;;;;;;5054613;28;20197;-76
2023/08/24 05:22:24;;;;;;;13.77;5.60;;;16.50;99.90;;;;;;5054403;28;20199;-76
2023/08/24 05:24:50;;;;;;;9.93;5.80;;;16.50;99.90;;;;;;5054994;28;20259;-76
2023/08/24 05:27:16;;;;;;;10.87;6.50;;;16.50;99.90;;;;;;5053425;28;20229;-76
2023/08/24 05:29:43;;;;;;;9.07;6.20;;;16.50;99.90;;;;;;5054386;28;20184;-76
2023/08/24 05:32:08;;;;;;;9.63;6.10;;;16.50;99.90;;;;;;5054270;28;20270;-74
2023/08/24 05:34:34;;;;;;;12.90;6.03;;;16.60;99.90;;;;;;5054647;28;20195;-76
2023/08/24 05:36:59;;;;;;;10.77;5.87;;;16.60;99.90;;;;;;5054385;28;20168;-75
2023/08/24 05:39:25;;;;;;;13.03;6.37;;;16.70;99.90;;;;;;5054723;28;20164;-76
2023/08/24 05:41:52;;;;;;;11.53;6.40;;;16.70;99.90;;;;;;5054190;28;20184;-75
2023/08/24 05:44:21;;;;;;;9.87;6.50;;;17.00;99.90;;;;;;5054005;28;20221;-74
2023/08/24 05:46:47;;;;;;;10.53;6.73;;;16.90;99.90;;;;;;5051825;28;20222;-76
2023/08/24 05:49:13;;;;;;;10.73;6.87;;;16.90;99.90;;;;;;5054298;28;20353;-76
2023/08/24 05:51:39;;;;;;;13.37;7.73;;;16.90;99.90;;;;;;5052551;28;20192;-75
2023/08/24 05:54:04;;;;;;;10.80;7.00;;;17.00;99.90;;;;;;5053986;28;20309;-76
2023/08/24 05:56:30;;;;;;;9.73;7.37;;;17.00;99.90;;;;;;5053879;28;20266;-76
2023/08/24 05:58:58;;;;;;;15.77;7.23;;;17.00;99.90;;;;;;5054084;28;20170;-75
2023/08/24 06:01:23;;;;;;;8.07;6.67;;;17.10;99.90;;;;;;5054258;28;20195;-75
2023/08/24 06:03:50;;;;;;;14.03;6.90;;;17.10;99.90;;;;;;5053886;28;20690;-75
2023/08/24 06:06:15;;;;;;;11.30;6.10;;;17.10;99.90;;;;;;5054228;28;20164;-75
2023/08/24 06:08:42;;;;;;;9.93;6.50;;;17.20;99.90;;;;;;5053894;28;20174;-75
2023/08/24 06:11:08;;;;;;;16.50;6.10;;;17.20;99.90;;;;;;5053468;28;20191;-76
2023/08/24 06:13:34;;;;;;;11.13;6.23;;;17.20;99.90;;;;;;5053699;28;20225;-75
2023/08/24 06:15:59;;;;;;;11.23;6.17;;;17.30;99.90;;;;;;5053341;28;20179;-75
2023/08/24 06:18:25;;;;;;;11.03;5.80;;;17.30;99.90;;;;;;5052013;28;20206;-76
2023/08/24 06:20:50;;;;;;;9.33;5.67;;;17.40;99.90;;;;;;5051982;28;20183;-76
2023/08/24 06:23:17;;;;;;;8.60;6.00;;;17.40;99.90;;;;;;5051898;28;20198;-76
2023/08/24 06:25:43;;;;;;;8.63;5.63;;;17.50;99.90;;;;;;5053304;28;20171;-76
2023/08/24 06:28:10;;;;;;;10.50;5.60;;;17.50;99.90;;;;;;5053240;28;20188;-76
2023/08/24 06:30:39;;;;;;;8.10;5.23;;;17.50;99.90;;;;;;5053505;28;20614;-75
2023/08/24 06:33:05;;;;;;;8.63;5.53;;;17.60;99.90;;;;;;5053170;28;20178;-75
2023/08/24 06:35:35;;;;;;;7.63;5.57;;;17.50;99.90;;;;;;5051774;28;20190;-76
2023/08/24 06:38:01;;;;;;;8.27;4.93;;;17.60;99.90;;;;;;5051621;28;20281;-76
2023/08/24 06:40:28;;;;;;;8.30;5.70;;;17.50;99.90;;;;;;5053307;28;20172;-76
2023/08/24 06:42:53;;;;;;;6.67;5.37;;;17.60;99.90;;;;;;5053622;28;20614;-77
2023/08/24 06:45:19;;;;;;;6.70;4.80;;;17.60;99.90;;;;;;5053491;28;20171;-77
2023/08/24 06:47:45;;;;;;;12.07;5.30;;;17.60;99.90;;;;;;5053472;28;20167;-77
2023/08/24 06:50:11;;;;;;;11.60;6.00;;;17.60;99.90;;;;;;5051702;28;20167;-77
2023/08/24 06:52:36;;;;;;;7.17;5.40;;;17.60;99.90;;;;;;5052755;28;20195;-76
2023/08/24 06:55:03;;;;;;;10.23;6.20;;;17.60;99.90;;;;;;5053673;28;20176;-77
2023/08/24 06:57:29;;;;;;;8.90;5.77;;;17.70;99.90;;;;;;5053284;28;20639;-76
2023/08/24 06:59:54;;;;;;;10.00;5.87;;;17.70;99.90;;;;;;5052881;28;20225;-77
2023/08/24 07:02:20;;;;;;;12.23;5.70;;;17.70;99.90;;;;;;5052818;28;20203;-77
2023/08/24 07:04:46;;;;;;;7.53;5.20;;;17.80;99.90;;;;;;5051506;28;20249;-77
2023/08/24 07:07:11;;;;;;;7.27;5.67;;;17.80;99.90;;;;;;5053182;28;20175;-77
2023/08/24 07:09:37;;;;;;;13.87;6.17;;;17.90;99.90;;;;;;5053187;28;20569;-77
2023/08/24 07:12:06;;;;;;;9.10;6.23;;;17.90;99.90;;;;;;5052776;28;20569;-76
2023/08/24 07:14:32;;;;;;;8.03;5.20;;;18.00;99.90;;;;;;5051567;28;20179;-77
2023/08/24 07:16:58;;;;;;;9.57;6.40;;;18.10;99.90;;;;;;5051517;28;20178;-77
2023/08/24 07:19:23;;;;;;;10.50;5.93;;;18.20;99.90;;;;;;5052745;28;20167;-77
2023/08/24 07:21:49;;;;;;;14.23;6.63;;;18.20;99.90;;;;;;5052724;28;20179;-76
2023/08/24 07:24:14;;;;;;;7.10;5.50;;;18.30;99.90;;;;;;5052869;28;20193;-76
2023/08/24 07:26:45;;;;;;;7.70;6.20;;;18.50;99.90;;;;;;5052558;28;20167;-77
2023/08/24 07:29:10;;;;;;;6.97;5.90;;;18.40;99.90;;;;;;5052206;28;20278;-77
2023/08/24 07:31:36;;;;;;;10.33;6.90;;;18.50;99.90;;;;;;5052525;28;20270;-77
2023/08/24 07:34:03;;;;;;;18.77;8.37;;;18.50;99.90;;;;;;5052586;28;20484;-77
2023/08/24 07:36:29;;;;;;;14.47;7.77;;;18.80;99.90;;;;;;5051162;28;20266;-77
2023/08/24 07:38:55;;;;;;;10.83;6.20;;;18.70;99.90;;;;;;5052479;28;20232;-76
2023/08/24 07:41:21;;;;;;;9.90;6.37;;;18.70;99.90;;;;;;5052691;28;20680;-77
2023/08/24 07:43:46;;;;;;;12.17;6.57;;;18.80;99.90;;;;;;5052716;28;20192;-77
2023/08/24 07:46:12;;;;;;;8.90;6.20;;;18.90;99.90;;;;;;5052314;28;20202;-76
2023/08/24 07:48:38;;;;;;;12.63;6.20;;;18.80;99.90;;;;;;5052590;28;20206;-77
2023/08/24 07:51:03;;;;;;;12.47;6.43;;;19.10;99.90;;;;;;5052664;28;20191;-77
2023/08/24 07:53:29;;;;;;;13.10;6.00;;;19.10;99.90;;;;;;5050833;28;20175;-77
2023/08/24 07:55:57;;;;;;;7.33;4.70;;;19.20;99.90;;;;;;5052620;28;20164;-76
2023/08/24 07:58:23;;;;;;;10.87;5.53;;;19.30;99.90;;;;;;5052291;28;20171;-77
2023/08/24 08:00:51;;;;;;;11.83;5.37;;;19.40;99.90;;;;;;5052234;28;20176;-76
2023/08/24 08:03:20;;;;;;;9.07;5.67;;;19.40;99.90;;;;;;5039186;28;20208;-77
2023/08/24 08:05:47;;;;;;;11.63;5.23;;;19.60;99.90;;;;;;5032322;28;20187;-77
2023/08/24 08:08:16;;;;;;;7.27;4.37;;;19.50;99.90;;;;;;5032282;28;20172;-77
2023/08/24 08:10:42;;;;;;;7.50;4.10;;;19.70;99.90;;;;;;5036159;28;20170;-77
2023/08/24 08:13:10;;;;;;;4.87;3.70;;;19.80;99.90;;;;;;5039461;28;20180;-76
2023/08/24 08:15:38;;;;;;;5.90;3.97;;;19.90;99.90;;;;;;5035799;28;20179;-76
2023/08/24 08:18:04;;;;;;;8.43;3.37;;;20.10;99.90;;;;;;5035883;28;20215;-76
2023/08/24 08:20:30;;;;;;;11.10;3.60;;;20.10;99.90;;;;;;5034475;28;20223;-77
2023/08/24 08:22:56;;;;;;;4.30;3.20;;;20.40;99.90;;;;;;5038125;28;20207;-76
2023/08/24 08:25:22;;;;;;;4.20;2.80;;;20.40;99.90;;;;;;5056076;28;20696;-77
2023/08/24 08:27:48;;;;;;;8.67;2.73;;;20.50;99.90;;;;;;5044654;28;20180;-77
2023/08/24 08:30:15;;;;;;;3.50;2.57;;;20.60;99.90;;;;;;5050245;28;20619;-76
2023/08/24 08:32:40;;;;;;;5.77;2.60;;;20.60;99.90;;;;;;5055617;28;20683;-76
2023/08/24 08:35:08;;;;;;;3.70;2.50;;;20.60;99.90;;;;;;5055935;28;20178;-76
2023/08/24 08:37:36;;;;;;;4.70;2.30;;;20.90;99.90;;;;;;5053897;28;20295;-77
2023/08/24 08:40:05;;;;;;;3.87;2.10;;;21.00;99.90;;;;;;5055754;28;20249;-76
2023/08/24 08:42:31;;;;;;;4.53;2.50;;;20.90;99.90;;;;;;5055173;28;20206;-76
2023/08/24 08:44:58;;;;;;;3.83;2.70;;;21.10;99.90;;;;;;5054214;28;20546;-77
2023/08/24 08:47:24;;;;;;;3.57;2.37;;;21.30;99.90;;;;;;5049054;28;20243;-77
2023/08/24 08:49:52;;;;;;;4.50;2.63;;;21.20;99.90;;;;;;5054340;28;20180;-77
2023/08/24 08:52:17;;;;;;;6.63;2.50;;;21.30;99.90;;;;;;5055097;28;20568;-77
2023/08/24 08:54:43;;;;;;;6.00;3.23;;;21.40;99.90;;;;;;5055305;28;20179;-76
2023/08/24 08:57:09;;;;;;;3.83;2.90;;;21.50;99.90;;;;;;5053303;28;20216;-76
2023/08/24 08:59:36;;;;;;;3.50;2.50;;;21.50;99.90;;;;;;5055217;28;20283;-76
2023/08/24 09:02:03;;;;;;;4.77;2.67;;;21.70;99.90;;;;;;5054746;28;20238;-77
2023/08/24 09:04:32;;;;;;;4.93;2.70;;;21.60;99.90;;;;;;5055167;28;20186;-76
2023/08/24 09:07:00;;;;;;;4.53;2.73;;;21.70;99.90;;;;;;5051845;28;20262;-76
2023/08/24 09:09:26;;;;;;;4.93;2.50;;;21.80;99.90;;;;;;5055923;28;20183;-76
2023/08/24 09:11:53;;;;;;;8.67;2.47;;;21.80;99.90;;;;;;5055158;28;20195;-77
2023/08/24 09:14:19;;;;;;;3.20;2.07;;;21.90;99.90;;;;;;5036908;28;20192;-77
2023/08/24 09:16:44;;;;;;;3.50;2.50;;;22.00;99.90;;;;;;5034517;28;20184;-77
2023/08/24 09:19:11;;;;;;;3.70;2.10;;;22.10;99.90;;;;;;5034949;28;20191;-76
2023/08/24 09:21:39;;;;;;;7.07;2.60;;;22.10;99.90;;;;;;5033152;28;20238;-76
2023/08/24 09:24:05;;;;;;;4.43;2.40;;;22.30;99.90;;;;;;5034817;28;20199;-77
2023/08/24 09:26:36;;;;;;;8.07;2.40;;;22.40;99.90;;;;;;5034646;28;20172;-77
2023/08/24 09:29:16;;;;;;;4.03;2.20;;;22.50;99.90;;;;;;5043495;28;20192;-77
2023/08/24 09:31:45;;;;;;;3.03;2.00;;;22.60;99.90;;;;;;5054470;28;20191;-76
2023/08/24 09:34:11;;;;;;;5.50;2.57;;;22.70;99.90;;;;;;5053269;28;20179;-77
2023/08/24 09:36:38;;;;;;;4.33;2.40;;;22.60;99.90;;;;;;5053006;28;20639;-76
2023/08/24 09:39:05;;;;;;;4.57;2.37;;;22.70;99.90;;;;;;5052642;28;20674;-76
2023/08/24 09:41:48;;;;;;;4.07;2.10;;;23.00;99.90;;;;;;5052953;28;20245;-76
2023/08/24 09:44:14;;;;;;;2.87;2.17;;;23.00;99.90;;;;;;5054151;28;20257;-77
2023/08/24 09:46:40;;;;;;;3.53;2.50;;;23.10;99.90;;;;;;5037085;28;20188;-77
2023/08/24 09:49:07;;;;;;;3.70;2.07;;;23.20;1.00;;;;;;5034079;28;20187;-76
2023/08/24 09:51:34;;;;;;;3.17;2.50;;;23.30;1.00;;;;;;5034285;28;20197;-76
2023/08/24 09:54:06;;;;;;;2.90;2.27;;;23.30;1.00;;;;;;5034638;28;20172;-76
2023/08/24 09:56:38;;;;;;;3.43;2.10;;;23.40;99.90;;;;;;5051325;28;20199;-77
2023/08/24 09:59:17;;;;;;;3.73;2.07;;;23.50;99.90;;;;;;5052201;28;20171;-77
2023/08/24 10:01:46;;;;;;;6.33;2.30;;;23.50;1.00;;;;;;5034612;28;20211;-77
2023/08/24 10:04:22;;;;;;;5.63;2.37;;;23.60;1.00;;;;;;5034149;28;20203;-76
2023/08/24 10:06:52;;;;;;;9.43;2.30;;;23.60;1.00;;;;;;5034252;28;20222;-77
2023/08/24 10:09:35;;;;;;;4.83;2.37;;;23.80;1.00;;;;;;5033789;28;20204;-77
2023/08/24 10:12:05;;;;;;;4.40;2.20;;;23.70;99.90;;;;;;5033492;28;20207;-77
2023/08/24 10:14:55;;;;;;;3.03;2.30;;;23.90;1.00;;;;;;5034268;28;20157;-77
2023/08/24 10:17:23;;;;;;;4.27;2.30;;;24.00;99.90;;;;;;5033778;28;20235;-76
2023/08/24 10:19:51;;;;;;;2.87;2.20;;;24.00;99.90;;;;;;5033962;28;20249;-77
2023/08/24 10:22:21;;;;;;;5.10;2.13;;;24.10;1.00;;;;;;5047618;28;20196;-77
2023/08/24 10:24:53;;;;;;;2.67;1.80;;;24.10;1.00;;;;;;5052665;28;20207;-77
2023/08/24 10:27:20;;;;;;;5.23;2.30;;;24.20;99.90;;;;;;5047444;28;20180;-77
2023/08/24 10:29:45;;;;;;;3.67;2.30;;;24.30;99.90;;;;;;5033319;28;20279;-77
2023/08/24 10:32:11;;;;;;;4.53;2.13;;;24.40;1.00;;;;;;5033214;28;20239;-77
2023/08/24 10:34:37;;;;;;;4.72;2.10;;;24.50;1.00;;;;;;5033687;28;20203;-77
2023/08/24 10:37:11;;;;;;;2.38;2.17;;;24.60;99.90;;;;;;5035057;28;20553;-77
2023/08/24 10:39:43;;;;;;;4.10;2.10;;;24.60;1.00;;;;;;5053889;28;20173;-77
2023/08/24 10:42:11;;;;;;;3.33;2.33;;;24.70;1.00;;;;;;5037481;28;20200;-77
2023/08/24 10:44:39;;;;;;;3.80;2.03;;;24.80;1.00;;;;;;5032645;28;20173;-77
2023/08/24 10:47:12;;;;;;;6.88;2.17;;;24.90;99.90;;;;;;5034223;28;20188;-77
2023/08/24 10:49:38;;;;;;;2.20;1.98;;;24.90;99.90;;;;;;5033150;28;20164;-76
2023/08/24 10:52:24;;;;;;;2.97;2.03;;;25.00;99.90;;;;;;5047552;28;20725;-76
2023/08/24 10:54:51;;;;;;;3.05;2.17;;;25.00;99.90;;;;;;5053465;28;20155;-77
2023/08/24 10:57:38;;;;;;;3.40;2.05;;;25.10;99.90;;;;;;5053320;28;20232;-77
2023/08/24 11:00:10;;;;;;;5.30;2.30;;;25.20;99.90;;;;;;5053135;28;20171;-77
2023/08/24 11:02:50;;;;;;;3.55;2.15;;;25.20;1.00;;;;;;5051469;28;20250;-77
2023/08/24 11:05:21;;;;;;;6.70;2.17;;;25.20;99.90;;;;;;5051831;28;20207;-76
2023/08/24 11:07:50;;;;;;;3.47;2.17;;;25.30;99.90;;;;;;5052935;28;20218;-77
2023/08/24 11:10:16;;;;;;;4.45;2.40;;;25.30;1.00;;;;;;5053431;28;20167;-77
2023/08/24 11:13:03;;;;;;;4.60;2.20;;;25.40;1.00;;;;;;5050715;28;20223;-77
2023/08/24 11:15:42;;;;;;;4.15;1.88;;;25.50;99.90;;;;;;5054061;28;20171;-77
2023/08/24 11:18:39;;;;;;;5.35;2.42;;;25.50;1.00;;;;;;5053149;28;20175;-77
2023/08/24 11:21:06;;;;;;;5.60;2.22;;;25.50;99.90;;;;;;5050273;28;20241;-77
2023/08/24 11:23:33;;;;;;;3.30;2.25;;;25.50;1.00;;;;;;5052996;28;20294;-77
2023/08/24 11:25:59;;;;;;;5.38;2.40;;;25.50;99.90;;;;;;5051543;28;20647;-77
2023/08/24 11:28:29;;;;;;;5.32;2.30;;;25.80;99.90;;;;;;5052528;28;20209;-77
2023/08/24 11:30:56;;;;;;;4.68;2.20;;;25.70;1.00;;;;;;5051458;28;20164;-77
2023/08/24 11:33:30;;;;;;;6.20;2.13;;;25.50;49.10;;;;;;5053106;28;20636;-77
2023/08/24 11:35:55;;;;;;;3.75;2.63;;;25.50;1.00;;;;;;5052437;28;20270;-77
2023/08/24 11:38:21;;;;;;;3.85;2.30;;;25.40;1.00;;;;;;5051507;28;20258;-77
2023/08/24 11:40:47;;;;;;;2.75;2.35;;;25.50;1.00;;;;;;5049823;28;20188;-77
2023/08/24 11:43:20;;;;;;;4.32;2.00;;;25.40;7.10;;;;;;5032966;28;20241;-76
2023/08/24 11:45:46;;;;;;;2.78;2.30;;;25.40;99.90;;;;;;5036844;28;20206;-77
2023/08/24 11:48:11;;;;;;;3.67;2.38;;;25.40;99.90;;;;;;5050186;28;20180;-77
2023/08/24 11:50:38;;;;;;;9.30;2.47;;;25.40;99.90;;;;;;5056984;28;20174;-77
2023/08/24 11:53:07;;;;;;;5.13;2.67;;;25.40;99.90;;;;;;5056984;28;20687;-77
2023/08/24 11:55:32;;;;;;;3.70;2.28;;;25.50;1.00;;;;;;5057610;28;20234;-76
2023/08/24 11:58:00;;;;;;;4.15;2.35;;;25.50;99.90;;;;;;5056753;28;20176;-77
2023/08/24 12:00:26;;;;;;;4.38;2.30;;;25.50;1.00;;;;;;5056538;28;20226;-77
2023/08/24 12:02:52;;;;;;;8.85;3.28;;;25.60;1.00;;;;;;5055244;28;20203;-77
2023/08/24 12:05:26;;;;;;;6.78;2.72;;;25.60;99.90;;;;;;5055031;28;20179;-77
2023/08/24 12:07:54;;;;;;;4.65;2.45;;;25.60;99.90;;;;;;5056682;28;20566;-77
2023/08/24 12:10:20;;;;;;;5.13;2.80;;;25.90;99.90;;;;;;5056798;28;20172;-77
2023/08/24 12:12:46;;;;;;;6.20;2.88;;;25.70;99.90;;;;;;5056036;28;20231;-77
2023/08/24 12:15:16;;;;;;;4.95;2.42;;;25.70;19.10;;;;;;5056682;28;20180;-77
2023/08/24 12:17:43;;;;;;;3.88;2.65;;;25.70;1.00;;;;;;5056287;28;20718;-77
2023/08/24 12:20:22;;;;;;;9.50;3.00;;;25.80;99.90;;;;;;5056500;28;20175;-77
2023/08/24 12:22:52;;;;;;;7.43;2.90;;;25.70;1.00;;;;;;5056604;28;20195;-77
2023/08/24 12:25:18;;;;;;;3.88;2.85;;;25.70;1.00;;;;;;5056829;28;20175;-77
2023/08/24 12:27:43;;;;;;;8.40;2.70;;;25.60;1.00;;;;;;5056394;28;20171;-77
2023/08/24 12:30:11;;;;;;;8.20;3.22;;;25.70;99.90;;;;;;5056422;28;20163;-77
2023/08/24 12:32:46;;;;;;;7.53;2.97;;;25.60;1.00;;;;;;5055934;28;20191;-77
2023/08/24 12:35:14;;;;;;;9.63;2.90;;;25.50;92.30;;;;;;5055914;28;20167;-77
2023/08/24 12:37:39;;;;;;;5.95;2.92;;;25.40;99.90;;;;;;5055793;28;20280;-77
2023/08/24 12:40:06;;;;;;;6.47;3.25;;;25.40;99.90;;;;;;5055902;28;20168;-77
2023/08/24 12:42:32;;;;;;;4.20;2.72;;;25.20;99.90;;;;;;5055426;28;20195;-77
2023/08/24 12:44:57;;;;;;;6.15;3.40;;;25.10;1.00;;;;;;5055651;28;20202;-76
2023/08/24 12:47:23;;;;;;;6.30;3.17;;;25.00;1.00;;;;;;5055735;28;20251;-77